Caio Braga

Ojeador - Grêmio
25 Nov 2027
Jueves
Continuar

Personalidad

Adaptabilidad (5) Ambición (6) Controversia (4) Lealtad (19) Presión (12) Profesionalismo (18) Deportividad (12) Temperamento (10)

Perfil

Estilo de dirección Democrático
Licencia Continental C
Determinación 9
Gestión de personas 6
Motivación 9
Disciplina 6
Satisfacción laboral
100%
Fatiga
0%
Cargo Ojeador
Salario 104.4K p/s
Contrato 14.03.2030

Rendimiento

Comportamiento Bueno
Efectividad del entrenamiento
49%
Desarrollo de jugadores
60%
Prevención de lesiones
55%
Implementación táctica
35%

Eventos recientes

Evaluó a un jugador ahora
Asistió a una reunión de captación ahora
Recomendó un objetivo de fichaje ahora
Asistió a una reunión de captación ahora
Asistió a una reunión de captación ahora
Asistió a una reunión de captación ahora
Evaluó a un jugador 7d atrás
Evaluó a un jugador 7d atrás

Actualmente siguiendo

281
Jugador Club Estado Habilidad Confianza Observado Última observación Último voto
Erick Pulga Bahia Activo 135 / 127 40% 6 24.11.2027 -
Pedro de la Vega FC Dallas Activo 137 / 132 40% 2 24.11.2027 -
Khellven Palmeiras Activo 137 / 127 40% 3 24.11.2027 -
Vitinho Botafogo Activo 135 / 132 40% 5 22.11.2027 -
Tiago Palacios Estudiantes Activo 132 / 132 40% 1 22.11.2027 -
Benjamín Rollheiser Santos Activo 134 / 137 40% 4 21.11.2027 -
Brais Méndez Columbus Crew Activo 150 / 150 40% 7 20.11.2027 -
Vinicinho Bragantino Activo 129 / 127 40% 5 20.11.2027 -
Myles Lewis-Skelly Birmingham Activo 153 / 154 40% 4 20.11.2027 -
Allan Saint-Maximin Charlotte Football Club Activo 147 / 145 40% 8 20.11.2027 -
Marvelous Freedom Ikorodu City Activo 93 / 93 40% 3 20.11.2027 -
Maurício Palmeiras Activo 140 / 132 40% 3 17.11.2027 -
Ramón Sosa Palmeiras Activo 139 / 139 40% 4 17.11.2027 -
Bernardo Lima Porto Activo 106 / 114 40% 1 16.11.2027 -
Martim Ferreira Benfica Activo 106 / 117 40% 1 16.11.2027 -
Henry Mosquera Bragantino Activo 134 / 132 40% 7 15.11.2027 -
Ferreirinha Sport Recife Activo 132 / 129 40% 6 15.11.2027 Observar
Lucas Assadi AIK Activo 135 / 133 40% 4 13.11.2027 -
Iván Angulo Orlando City Activo 134 / 128 40% 2 13.11.2027 -
Marco Pašalić Orlando City Activo 130 / 129 40% 4 12.11.2027 -
Gérson Cruzeiro Activo 139 / 145 40% 1 12.11.2027 -
Samuel Lino Flamengo Activo 145 / 140 40% 5 11.11.2027 -
Riqui Puig LA Galaxy Activo 139 / 138 40% 2 11.11.2027 -
Mads Bomholt Stabaek Activo 108 / 117 40% 2 11.11.2027 -
João Teixeira Porto Activo 115 / 125 40% 2 11.11.2027 -
Gonçalo Oliveira Benfica Activo 114 / 124 40% 1 11.11.2027 -
Eduardo Felicíssimo Sporting CP Activo 117 / 134 40% 2 08.11.2027 -
Caleb Yirenkyi Coventry City Activo 143 / 152 40% 2 07.11.2027 -
Luis Otávio Colorado Rapids Activo 109 / 117 40% 1 07.11.2027 -
Jhon Arias Palmeiras Activo 141 / 137 40% 6 06.11.2027 -
Luca Langoni Colorado Rapids Activo 133 / 136 40% 6 06.11.2027 -
Rodrigo Garro Corinthians Activo 139 / 141 40% 6 05.11.2027 -
Jack Harrison New England Revolution Activo 130 / 125 40% 5 05.11.2027 -
Nuno Moreira Vasco da Gama Activo 132 / 132 40% 3 02.11.2027 -
André Luiz New York City Activo 129 / 132 40% 4 02.11.2027 -
Renan Lodi Atlético Mineiro Activo 137 / 140 40% 5 31.10.2027 -
Håkon Evjen Molde Activo 133 / 131 40% 1 31.10.2027 -
Duvan Rangel La Equidad Activo 136 / 135 40% 5 29.10.2027 -
Artur Botafogo Activo 134 / 127 40% 5 28.10.2027 -
Jorge Carrascal Flamengo Activo 138 / 130 40% 2 28.10.2027 -
Miguel Figueiredo Cesena Activo 118 / 127 40% 3 28.10.2027 -
Nicolas Sport Recife Activo 106 / 107 40% 1 28.10.2027 -
Hervin Goyes Deportivo Pasto Activo 107 / 112 40% 1 28.10.2027 -
Andrés Gómez Vasco da Gama Activo 138 / 138 40% 5 25.10.2027 -
Josh King Chelsea Activo 143 / 152 40% 1 23.10.2027 -
David Da Costa Portland Timbers Activo 133 / 133 40% 4 22.10.2027 -
Ignacio Fernández Boston River Activo 91 / 99 40% 2 22.10.2027 -
Daniel Banjaqui Benfica Activo 120 / 127 40% 1 22.10.2027 -
Juan Morán Godoy Cruz Activo 108 / 109 40% 1 21.10.2027 -
Kauã Moraes Cruzeiro Activo 127 / 132 40% 3 12.10.2027 -
Bahia Criciuma Activo 111 / 124 40% 1 12.10.2027 -
Alejandro Almaraz Nueva Chicago Activo 108 / 115 40% 1 11.10.2027 -
Joel Ezra Enyimba Activo 91 / 97 40% 1 11.10.2027 -
Mikkel Hope Haugesund Activo 99 / 112 40% 2 10.10.2027 -
Ayden Heaven Luton Town Activo 147 / 145 40% 1 10.10.2027 -
Martín Ojeda Orlando City Activo 139 / 128 40% 3 09.10.2027 -
Pavel Bucha FC Cincinnati Activo 130 / 133 40% 2 05.10.2027 -
Telasco Segovia Inter Miami CF Activo 139 / 132 40% 2 05.10.2027 -
Archie Gray Derby County Activo 147 / 155 40% 1 04.10.2027 -
Paxten Aaronson Colorado Rapids Activo 140 / 145 40% 4 02.10.2027 -
Brooke Norton-Cuffy Inter Miami CF Activo 135 / 137 40% 2 01.10.2027 -
Alan Lescano Argentinos Juniors Activo 134 / 130 40% 1 12.09.2027 -
Gabriel Pirani San Diego Football Club Activo 131 / 130 40% 1 07.09.2027 -
Álvaro Barreal Santos Rechazado 136 / 137 83% 2 05.09.2027 Rechazar
Kai Wagner Philadelphia Union Activo 123 / 132 40% 2 28.08.2027 -
Sergio Reguilón Inter Miami CF Activo 135 / 137 40% 2 28.08.2027 -
Tomás Escalante Plaza Colonia Activo 126 / 126 40% 1 28.08.2027 -
Aaron Herrera Charlotte Football Club Activo 130 / 127 40% 1 27.08.2027 -
Willyan Rocha Al Jazira Activo 133 / 133 40% 1 27.08.2027 -
Leonardo Borja La Equidad Activo 146 / 146 40% 1 27.08.2027 -
Nahuel Herrera Penarol Activo 128 / 126 40% 1 26.08.2027 -
Naves Palmeiras Activo 135 / 137 40% 1 26.08.2027 -
Arthur Santos Activo 139 / 139 40% 1 25.08.2027 -
Mateo Mendoza Godoy Cruz Activo 128 / 129 40% 1 25.08.2027 -
Steven Alzate Atlanta United FC Activo 130 / 131 40% 1 25.08.2027 -
Sergi Palencia Los Angeles Football Club Activo 130 / 123 40% 1 23.08.2027 -
Mohamed Camara Maccabi Tel Aviv Activo 145 / 140 40% 1 23.08.2027 -
Marcos Antonio Sport Recife Activo 143 / 143 40% 1 22.08.2027 -
Marcelo Saracchi Houston Dynamo Activo 125 / 120 40% 1 22.08.2027 -
Nadir Zortea Bologna Activo 141 / 141 40% 3 20.08.2027 -
Alessandro Bastoni Inter Activo 166 / 165 40% 2 20.08.2027 -
Tommaso Pobega Bologna Activo 146 / 146 40% 1 20.08.2027 -
Nuno Tavares Lazio Activo 155 / 152 40% 3 19.08.2027 -
Josh Doig Sassuolo Activo 144 / 147 40% 1 19.08.2027 -
Idrissa Touré Monza Activo 138 / 142 40% 1 19.08.2027 -
Fikayo Tomori AC Milan Activo 155 / 151 40% 2 17.08.2027 -
Emanuele Valeri Parma Activo 142 / 140 40% 2 17.08.2027 -
Benedict Hollerbach Mainz 05 Activo 141 / 139 40% 2 17.08.2027 -
Andrea Colpani Monza Activo 144 / 144 40% 2 17.08.2027 -
Gaetano Castrovilli Cesena Activo 137 / 139 40% 1 17.08.2027 -
Samuele Angori Pisa Activo 136 / 135 40% 1 16.08.2027 -
Alessandro Buongiorno Sassuolo Activo 162 / 156 40% 1 16.08.2027 -
Daniel Tonoli Modena Activo 132 / 133 40% 1 16.08.2027 -
Alessandro Sersanti Modena Activo 128 / 134 40% 1 13.08.2027 -
Franck Kessié Atalanta Activo 152 / 147 40% 1 13.08.2027 -
Diego Moreira AC Milan Activo 147 / 147 40% 1 12.08.2027 -
Lewis Ferguson Bologna Activo 148 / 151 40% 1 12.08.2027 -
Assane Diao Lazio Activo 153 / 158 40% 1 11.08.2027 -
Manu Koné AS Roma Activo 167 / 169 40% 3 10.08.2027 -
Guille Rosas Gijón Activo 142 / 144 40% 3 10.08.2027 -
Donyell Malen AS Roma Activo 155 / 151 40% 1 10.08.2027 -
Carlos Augusto Inter Activo 153 / 158 40% 1 10.08.2027 -
Welington Southampton Activo 134 / 139 40% 10 08.08.2027 -
Hector Ramirez Newcastle United Activo 154 / 157 40% 2 08.08.2027 -
Jack Rudoni Coventry City Activo 141 / 134 40% 6 08.08.2027 -
Callum O'Hare Sheffield United Activo 137 / 134 40% 4 08.08.2027 -
Mikkel Damsgaard Brentford Activo 148 / 150 40% 1 08.08.2027 -
Borja Sainz Fiorentina Activo 155 / 144 40% 2 06.08.2027 -
Callum Hudson-Odoi Nottingham Forest Activo 154 / 155 40% 1 06.08.2027 -
Azor Matusiwa Ipswich Town Activo 141 / 139 40% 1 05.08.2027 -
Adrià Altimira Deportivo La Coruña Activo 136 / 132 40% 1 04.08.2027 -
Kiernan Dewsbury-Hall Everton Activo 153 / 152 40% 3 03.08.2027 -
Léo Scienza Southampton Activo 142 / 140 40% 2 03.08.2027 -
Giacomo Raspadori Atalanta Activo 154 / 152 40% 1 03.08.2027 -
Tom Fellows Southampton Activo 137 / 135 40% 5 30.07.2027 -
Xavi Simons Tottenham Activo 161 / 165 40% 2 30.07.2027 -
Dango Ouattara Brentford Activo 151 / 145 40% 3 30.07.2027 -
Nicolas Jackson Aston Villa Activo 151 / 145 40% 1 28.07.2027 -
Georginio Rutter Brighton Activo 152 / 146 40% 1 28.07.2027 -
Harry Wilson Leeds United Activo 145 / 152 40% 1 27.07.2027 -
Jacob Ramsey Newcastle United Activo 156 / 147 40% 1 27.07.2027 -
Morgan Whittaker Middlesbrough Activo 137 / 131 40% 3 26.07.2027 -
Carlos Vicente Birmingham Activo 147 / 147 40% 1 26.07.2027 -
Joe Gelhardt Hull City Activo 136 / 138 40% 1 24.07.2027 -
Finn Azaz Southampton Activo 133 / 137 40% 2 23.07.2027 -
Mohamed-Ali Cho Hull City Activo 142 / 142 40% 1 23.07.2027 -
Riley McGree Middlesbrough Activo 136 / 136 40% 2 19.07.2027 -
Lucas Moura Sport Recife Activo 134 / 134 86% 1 03.06.2027 Aprobar
Curtis Jones Inter Activo 155 / 151 40% 8 31.05.2027 -
Ethan Galbraith Swansea City Activo 134 / 130 40% 3 30.05.2027 -
Óscar Mingueza Crystal Palace Activo 152 / 152 40% 2 30.05.2027 -
Derry Murkin Derby County Activo 126 / 122 40% 1 30.05.2027 -
Marco Asensio Fenerbahce Activo 160 / 155 40% 2 29.05.2027 Más información
James Trafford Leeds United Activo 142 / 149 40% 4 28.05.2027 Observar
Jacob Widell Zetterström Derby County Activo 134 / 128 40% 1 28.05.2027 -
Jamie Cumming Oxford United Activo 129 / 126 40% 1 28.05.2027 -
Dara O'Shea Ipswich Town Activo 140 / 134 40% 3 26.05.2027 -
Nico González Newcastle United Activo 162 / 166 40% 4 25.05.2027 -
Adrien Truffert Bournemouth Activo 154 / 145 40% 2 25.05.2027 -
Milan van Ewijk Mansfield Town Activo 127 / 125 40% 3 24.05.2027 -
Rob Atkinson Bristol City Activo 122 / 126 40% 1 24.05.2027 -
Callum Doyle Wrexham Activo 133 / 132 40% 3 23.05.2027 -
Shea Charles Southampton Activo 139 / 138 40% 2 22.05.2027 -
Sven Botman Newcastle United Activo 160 / 160 40% 2 22.05.2027 -
Mads Hermansen West Ham United Activo 143 / 139 40% 3 20.05.2027 -
Michael Cooper Sheffield United Perdido 132 / 129 40% 2 20.05.2027 -
Saša Lukić Ipswich Town Activo 141 / 140 40% 3 18.05.2027 -
Arijanet Murić Sassuolo Activo 138 / 147 40% 3 17.05.2027 -
Dean Henderson Crystal Palace Activo 152 / 150 40% 2 17.05.2027 -
Lorenzo Palmisani Frosinone Activo 126 / 129 40% 1 15.05.2027 -
Anatolii Trubin Juventus Activo 156 / 159 40% 1 15.05.2027 -
Alexander Nübel Besiktas Perdido 149 / 144 40% 1 14.05.2027 -
Radek Vítek Middlesbrough Activo 141 / 145 40% 2 12.05.2027 Más información
Balázs Tóth Blackburn Rovers Activo 132 / 123 40% 2 12.05.2027 -
Mats Wieffer Brighton Activo 148 / 144 40% 1 12.05.2027 -
Adam Wharton Crystal Palace Activo 154 / 154 40% 2 11.05.2027 -
Nordi Mukiele Sunderland Activo 142 / 144 40% 1 11.05.2027 -
Kostantis Tzolakis Hull City Activo 147 / 143 40% 5 09.05.2027 -
Max O'Leary West Bromwich Albion Activo 133 / 131 40% 2 09.05.2027 -
Alex Meret Napoli Activo 157 / 160 40% 2 08.05.2027 -
Ousmane Diomande Nottingham Forest Activo 153 / 150 40% 1 08.05.2027 -
Michele Cerofolini Bari Perdido 129 / 128 40% 2 06.05.2027 -
Bilal Bayazıt Kayserispor Activo 126 / 128 40% 1 06.05.2027 -
Caoimhin Kelleher Brentford Activo 151 / 155 40% 3 05.05.2027 -
Tyler Adams Bournemouth Activo 154 / 150 40% 1 04.05.2027 -
Amadou Onana Aston Villa Activo 159 / 158 40% 1 04.05.2027 -
Boubacar Kamara Aston Villa Activo 166 / 164 40% 1 04.05.2027 -
Anton Stach Leeds United Activo 146 / 144 40% 1 02.05.2027 -
Daniel Iversen Preston Activo 129 / 127 40% 1 29.04.2027 -
Kenny Tete Fulham Activo 142 / 142 40% 2 28.04.2027 -
Jan Paul van Hecke Tottenham Activo 162 / 156 40% 2 28.04.2027 -
Xaver Schlager Nottingham Forest Activo 154 / 150 40% 1 28.04.2027 -
Juan Soriano Académico de Viseu Activo 132 / 130 40% 2 25.04.2027 -
Bright Arrey-Mbi Braga Activo 138 / 139 40% 10 24.04.2027 -
Iván Fresneda Sporting CP Activo 143 / 142 40% 16 24.04.2027 -
Cezary Miszta Rio Ave Activo 133 / 130 40% 3 24.04.2027 -
Nicolas Schmid Portsmouth Activo 126 / 123 40% 1 24.04.2027 -
Patrick Sequeira Casa Pia Activo 128 / 128 40% 3 19.04.2027 -
Pau Víctor AVS Activo 135 / 135 40% 9 18.04.2027 -
Tomás Araújo Benfica Activo 149 / 144 40% 17 17.04.2027 -
Ryan Sessegnon Fulham Activo 149 / 151 40% 1 17.04.2027 -
Ignacio de Arruabarrena Arouca Activo 125 / 132 40% 1 15.04.2027 -
Lazar Carević Famalicao Activo 137 / 131 40% 1 15.04.2027 -
Fredrik Aursnes Benfica Activo 147 / 150 40% 4 14.04.2027 -
Agustín Palavecino Cruz Azul Activo 134 / 141 40% 2 14.04.2027 -
Kristoffer Lund Birmingham Activo 133 / 130 40% 1 14.04.2027 -
Luke McNally Bristol City Activo 134 / 135 40% 1 14.04.2027 -
Francisco Moura Lusitânia Lourosa Activo 144 / 140 40% 4 12.04.2027 -
Kyle Walker-Peters West Ham United Activo 133 / 134 40% 1 12.04.2027 -
Harry Clarke Preston Activo 130 / 130 40% 1 12.04.2027 -
Gonçalo Inácio Sporting CP Activo 147 / 153 40% 11 09.04.2027 -
Luís Esteves Atlas Activo 132 / 126 40% 6 09.04.2027 -
Jordan Holsgrove Estoril Praia Activo 131 / 127 40% 8 07.04.2027 -
Renato Sanches AVS Activo 136 / 126 40% 5 07.04.2027 -
Robin Roefs Sunderland Activo 147 / 148 40% 1 06.04.2027 -
Jan Bednarek Porto Activo 146 / 140 40% 9 05.04.2027 -
Hwang In-Beom Porto Activo 144 / 145 40% 14 05.04.2027 -
João Palhinha Benfica Activo 154 / 145 40% 13 04.04.2027 -
Javi Sánchez Arouca Activo 128 / 132 40% 4 02.04.2027 -
Víctor Gómez Braga Activo 141 / 133 40% 17 01.04.2027 -
Alejandro Zendejas Club America Activo 142 / 139 40% 2 01.04.2027 -
Alberto Costa Porto Activo 142 / 148 40% 14 28.03.2027 -
Alan Varela Porto Activo 148 / 148 40% 6 26.03.2027 -
Pablo Rosario Porto Activo 144 / 132 40% 5 26.03.2027 -
Mario Dorgeles Braga Activo 140 / 137 40% 5 26.03.2027 -
Santi García Gil Vicente Activo 137 / 129 40% 9 22.03.2027 -
Samu Vitoria Guimaraes Activo 128 / 123 40% 2 22.03.2027 -
Eduardo Quaresma Sporting CP Activo 141 / 142 40% 6 20.03.2027 -
Luis Quintero Torreense Activo 131 / 125 40% 2 19.03.2027 -
Luís Guilherme Sporting CP Activo 128 / 131 40% 5 17.03.2027 -
Paulo Moreira Farense Activo 129 / 128 40% 4 15.03.2027 -
Valery Académico de Viseu Activo 127 / 116 40% 1 14.03.2027 -
Derensili Sanches Fernandes Huddersfield Town Activo 122 / 121 40% 1 12.03.2027 -
Rodrigo Pinheiro Famalicao Activo 122 / 130 40% 11 11.03.2027 -
Leon Goretzka Aston Villa Activo 153 / 153 40% 2 11.03.2027 -
João Simões Sporting CP Activo 130 / 137 40% 7 11.03.2027 -
Gonzalo Piovi Cruz Azul Activo 139 / 124 40% 1 09.03.2027 -
Sergi Altimira Sporting CP Activo 135 / 145 40% 6 08.03.2027 -
Sikou Niakaté Braga Activo 137 / 141 40% 7 07.03.2027 -
Rafik Guitane Estoril Praia Activo 137 / 135 40% 1 07.03.2027 -
Max Bird Birmingham Activo 132 / 132 40% 5 05.03.2027 -
Diego Lainez Tigres Activo 129 / 126 40% 3 03.03.2027 -
Pepê Porto Activo 149 / 138 40% 4 02.03.2027 -
Gerardo Arteaga Monterrey Activo 137 / 128 40% 2 01.03.2027 -
William Gomes Porto Activo 139 / 141 40% 3 26.02.2027 -
Erick Sánchez OGC Nice Activo 137 / 144 40% 1 26.02.2027 -
Juninho Pumas UNAM Activo 127 / 131 40% 1 25.02.2027 -
Dodi Lukébakio Benfica Activo 144 / 143 40% 2 19.02.2027 -
Ozziel Herrera Tigres Activo 123 / 124 40% 2 16.02.2027 -
Ross McCrorie Bristol City Activo 132 / 131 40% 1 16.02.2027 -
Gustaf Lagerbielke Braga Activo 136 / 141 40% 1 16.02.2027 -
Joaquim Tigres Activo 131 / 124 40% 1 14.02.2027 -
Florentino Luís Ipswich Town Activo 140 / 142 40% 1 08.02.2027 -
Victor Froholdt Porto Activo 149 / 153 40% 7 05.02.2027 -
Gabri Martínez Braga Activo 135 / 126 40% 1 04.02.2027 -
Nicolás Fernández Mercau Shakhtar Activo 138 / 137 40% 3 03.02.2027 -
Maxime Dominguez Maritimo Activo 129 / 126 40% 1 01.02.2027 -
José Hurtado Bragantino Activo 123 / 123 40% 2 29.01.2027 -
Danilo Botafogo Activo 141 / 141 40% 1 27.01.2027 -
Matheuzinho Corinthians Activo 133 / 134 40% 5 26.01.2027 -
Caio Alexandre Bahia Activo 133 / 132 40% 5 25.01.2027 -
Matheus Bidu Corinthians Activo 135 / 131 40% 4 25.01.2027 -
Christian Krasnodar Activo 132 / 135 40% 6 23.01.2027 -
Lukáš Červ Viktoria Plzen Activo 134 / 138 40% 2 20.01.2027 -
Jesús Orozco Chiquete Cruz Azul Activo 135 / 125 40% 4 16.01.2027 -
Juan Pablo Freytes Fluminense Activo 132 / 124 40% 2 08.01.2027 -
Lucas Piton Vasco da Gama Activo 133 / 126 40% 3 08.01.2027 -
Félix Lemaréchal Club Brugge Activo 130 / 140 40% 1 06.01.2027 -
Gabriel Veron Porto Activo 125 / 120 40% 2 26.12.2026 -
Eric Ramires Bragantino Activo 126 / 130 40% 1 26.12.2026 -
Marquinhos Spartak Moscow Activo 128 / 134 40% 1 14.12.2026 -
Léo Ortiz Flamengo Activo 139 / 142 40% 2 23.11.2026 -
Vitor Carvalho Braga Activo 133 / 136 40% 1 21.11.2026 -
Mauro Arambarri River Plate Activo 157 / 155 40% 2 09.11.2026 -
Lucas Paquetá Flamengo Activo 142 / 142 40% 2 31.10.2026 -
Emerson Royal Flamengo Activo 136 / 129 40% 1 30.10.2026 -
Gustavo Marques Bragantino Activo 127 / 130 40% 2 24.10.2026 -
William Cruzeiro Activo 132 / 140 40% 3 15.10.2026 -
Fabrício Bruno Cruzeiro Activo 138 / 135 40% 2 13.10.2026 -
Jean Lucas Bahia Activo 134 / 137 40% 1 13.10.2026 -
Matty Cash Aston Villa Activo 153 / 146 40% 1 10.10.2026 -
Jesús Angulo Tigres Activo 129 / 128 40% 1 02.10.2026 -
Zeno Debast Sporting CP Activo 142 / 139 40% 3 30.09.2026 -
Martim Fernandes Porto Activo 131 / 142 40% 2 28.09.2026 -
Ibrahim Sangaré Nottingham Forest Activo 148 / 153 40% 1 27.09.2026 -
James Cardona La Equidad Activo 141 / 138 40% 1 24.09.2026 -
Alexander Bah Benfica Activo 141 / 134 40% 1 15.09.2026 -
Santiago Ramos Mingo Bahia Activo 134 / 132 40% 1 12.09.2026 -
Mathias De Amorim Famalicao Activo 130 / 132 40% 1 07.09.2026 -
Yoan Bonny Inter Activo 141 / 142 40% 2 18.08.2026 -
Youssef En-Nesyri Al-Ittihad Activo 134 / 140 40% 1 18.08.2026 -
Gabriel Jesus Barcelona Activo 150 / 158 40% 4 17.08.2026 -
Kerem Aktürkoğlu Fenerbahce Activo 140 / 133 40% 1 15.08.2026 -
Ricardo Horta Braga Activo 153 / 147 40% 1 09.08.2026 -
Dominic Calvert-Lewin Leeds United Activo 145 / 143 40% 1 05.08.2026 -
Joshua Zirkzee Manchester United Activo 147 / 136 40% 1 05.08.2026 -
Gonzalo Fulham Activo 146 / 146 40% 1 04.08.2026 -
Ángel Correa River Plate Activo 147 / 142 40% 1 04.08.2026 -
Matheus Pereira Cruzeiro Activo 140 / 137 40% 1 03.08.2026 -
Karim Adeyemi Barcelona Activo 144 / 154 40% 1 02.08.2026 -
Rodrigo Zalazar Sporting CP Activo 148 / 143 40% 1 02.08.2026 -